Florence, SC (29501)

6:42 PM EDT on April 26, 2017 (GMT -0400)
Springdale | | Change Station
Active Advisory: Flood Warning

Elev 135 ft 34.19 °N, 79.86 °W | Updated 30 seconds ago

Clear
Clear
84.2 °F
Feels Like 85 °F
N
1.1
Wind Variable Wind from West

Today
High -- | Low -- °F
--% Chance of Precip.
Yesterday
High -- | Low -- °F
Precip. -- in
Pressure 29.79 in
Visibility 10.0 miles
Clouds Few 5500 ft
Heat Index 85 °F
Dew Point 62 °F
Humidity 47%
Rainfall 0.00 in
Snow Depth Not available.
6:34 AM 7:59 PM
New Moon, 0% visible
METAR KFLO 262153Z AUTO 22009KT 10SM FEW055 28/16 A2980 RMK AO2 SLP086 T02830156
Pressure 29.79 in
Visibility 10.0 miles
Clouds Few 5500 ft
Heat Index 85 °F
Dew Point 62 °F
Humidity 47%
Rainfall 0.00 in
Snow Depth Not available.
6:34 AM 7:59 PM
New Moon, 0% visible
METAR KFLO 262153Z AUTO 22009KT 10SM FEW055 28/16 A2980 RMK AO2 SLP086 T02830156

Get Your Daily Forecast Email!

Thanks for signing up!

Be on the lookout for a verification email in your inbox.

You'll start receiving severe weather alerts in your inbox..

×

10-Day Weather Forecast

Almanac

Astronomy

Apr. 26, 2017 Rise Set
Actual Time
Civil Twilight
Nautical Twilight
Astronomical Twilight
Moon
Length of Visible Light
Length of Day
Tomorrow will be .
, % of the Moon is Illuminated

Today's Extremes

State Highs State Lows

Community

WunderPhotos

WunderBlog® & News

Nearby

Air Quality

  Air Quality AQ Index Pollutant
Not available.

Snow Depth

Station Depth Elevation

Earthquake Activity

City Distance Mag. Time & Date
Minimum magnitude displayed is 2.5.

Coastal Water Temperatures

Place Temperature

Stations

Nearby Weather Stations

Station Location Temp. Windchill Dew Point Humidity Wind Precip. Elev Updated Type
                   

Watches & Warnings

Flood Warning
Issued: 10:11 AM EDT Apr. 26, 2017 – National Weather Service

... Flood Warning now in effect until further notice...
the Flood Warning continues for
the great Pee Dee at Pee Dee.
* From this afternoon until further notice.
* At 9:00 am Wednesday the stage was 17.75 feet.
* Flood stage is 19.0 feet.
* Moderate flooding is forecast.
* Forecast... rise above flood stage by this afternoon and continue to rise to
near 24.5 feet by Monday morning. Additional rises are possible thereafter.
* Impact... at 25.0 feet... flood waters will continue to affect logging operations
upstream and downstream from Pee Dee. Flooding of farmlands adjacent to the
river will worsen.


Lat... Lon 3424 7962 3424 7950 3400 7945 3385 7932
          3385 7944 3398 7957